Weerstation
Sluispark-LeuvenLeuven-Sluispark

Weerstation
Wilsele-PutkapelWilsele-Putkapel



Nabijgelegen vliegvelden - METAR rapporten

   
EBBR - Wilsele bij Leuven
Gewijzigd: 28-07-2021 17:20
Licht bewolkt    Wind: WZW 31.5 km/h
Licht bewolkt
Wind: Wind: WZW 31.5 km/h
Temperatuur: 20°C
Dauwpunt: 10°C
Vochtigheid: 53%
Barometer: 1011 hPa
Bewolking: Licht bewolkt
Zicht: meer dan 10 km
Bewolking: Licht bewolkt 1219.2 m
EBBR 281520Z 24017KT 9999 FEW040 20/10 Q1011 NOSIG
EBAW - Antwerp
Gewijzigd: 28-07-2021 17:20
Gedeeltelijk bewolkt    Wind: WZW 27.8 km/h<br />Gust to 27.8 km/h
Gedeeltelijk bewolkt
Wind: Wind: WZW 27.8 km/h
Gust to 27.8 km/h
Temperatuur: 21°C
Dauwpunt: 12°C
Vochtigheid: 57%
Barometer: 1010 hPa
Bewolking: Gedeeltelijk bewolkt
Zicht: meer dan 10 km
Bewolking: Gedeeltelijk bewolkt 1066.8 m
EBAW 281520Z 24015G26KT 9999 SCT035 21/12 Q1010 NOSIG
EBLG - Li├Ęge
Gewijzigd: 28-07-2021 17:20
Licht bewolkt    Wind: ZW 27.8 km/h
Licht bewolkt
Wind: Wind: ZW 27.8 km/h
Temperatuur: 20°C
Dauwpunt: 10°C
Vochtigheid: 53%
Barometer: 1011 hPa
Bewolking: Licht bewolkt
Zicht: meer dan 10 km
Bewolking: Licht bewolkt 1402.1 m
EBLG 281520Z 23015KT 9999 FEW046 20/10 Q1011 NOSIG
EBCV - Mons/Bergen
Gewijzigd: 28-07-2021 17:25
Grotendeels bewolkt    Wind: WZW 22.2 km/h
Grotendeels bewolkt
Wind: Wind: WZW 22.2 km/h
Temperatuur: 19°C
Dauwpunt: 11°C
Vochtigheid: 60%
Barometer: 1011 hPa
Bewolking: Grotendeels bewolkt
Bewolking: Grotendeels bewolkt 2255.5 m
EBCV 281525Z AUTO 25012KT //// BKN074/// 19/11 Q1011 BLU
EHBK - Maastricht
Gewijzigd: 28-07-2021 17:25
Gedeeltelijk bewolkt    Wind: WZW 27.8 km/h
Gedeeltelijk bewolkt
Wind: Wind: WZW 27.8 km/h
Temperatuur: 21°C
Dauwpunt: 11°C
Vochtigheid: 53%
Barometer: 1011 hPa
Bewolking: Gedeeltelijk bewolkt
Zicht: meer dan 10 km
Bewolking: Gedeeltelijk bewolkt 1341.1 m
EHBK 281525Z AUTO 24015KT 200V280 9999 SCT044 21/11 Q1011 NOSIG
ELLX - Luxemburg
Gewijzigd: 28-07-2021 17:20
Grotendeels bewolkt    Wind: WZW 22.2 km/h
Grotendeels bewolkt
Wind: Wind: WZW 22.2 km/h
Temperatuur: 19°C
Dauwpunt: 12°C
Vochtigheid: 64%
Barometer: 1014 hPa
Bewolking: Grotendeels bewolkt
Zicht: meer dan 10 km
Bewolking: Licht bewolkt 1066.8 m,
Grotendeels bewolkt 1828.8 m
ELLX 281520Z 24012KT 9999 FEW035 BKN060 19/12 Q1014 NOSIG
EBOS - Oostende
Gewijzigd: 28-07-2021 17:20
Gedeeltelijk bewolkt    Wind: WZW 37 km/h<br />Gust to 37 km/h
Gedeeltelijk bewolkt
Wind: Wind: WZW 37 km/h
Gust to 37 km/h
Temperatuur: 20°C
Dauwpunt: 11°C
Vochtigheid: 56%
Barometer: 1010 hPa
Bewolking: Gedeeltelijk bewolkt
Zicht: meer dan 10 km
Bewolking: Gedeeltelijk bewolkt 1066.8 m
EBOS 281520Z 24020G30KT 9999 SCT035 20/11 Q1010 NOSIG
  

Script ontwikkeld door  Saratoga-weather.org Aangepast voor de template door  Weerstation Leuven

U vindt ons ook hier:

UK Metoffice

WeatherCloud

European Weather Network

Weather Underground

Benelux Weather Network

AWEKAS

WeatherlinkIP

HAMweather, WeatherForYou, PWS Weather

Het Weer Aktueel

Apparatuur in gebruik:

Weer-station
Davis VP2 weatherstation

Weer-programma
Meteobridge

Weer-computer
D-Link DIR-505

Davis VP2 weatherstation

Meteobridge

D-Link DIR-505